Tiempo atmosférico en la estación meteorológica de Punta Galea, Bizkaia (90 m.)



Fecha
DESCASC
Temp. máxima en grados centígrados (hora)
DESCASC
Temp. mínima en grados centígrados (hora)
DESCASC
Temp. media en grados centígrados
DESCASC
Racha de viento máxima en m/sg (hora)
DESCASC
Velocidad máxima media en intervalos de 10 minutos(hora)
DESCASC
Precipitaciones diarias en mm
DESCASC
Precipitaciones de 00:00 a 06:00 en mm
DESCASC
Precipitaciones de 06:00 a 12:00 en mm
DESCASC
Precipitaciones de 12:00 a 18:00 en mm
DESCASC
Precipitaciones de 18:00 a 24:00 en mm
DESCASC
16-04-2019 19 (16:40) 7.8 (07:40) 13.4 7.22 (15:40) 4.44 (16:10) 0 0 0 0 0
15-04-2019 24.7 (15:30) 11.8 (22:10) 18.3 17.22 (15:50) 10.83 (16:20) 8.3 0 0 7.3 1
14-04-2019 17.4 (17:00) 9.8 (00:00) 13.6 6.39 (13:50) 4.17 (14:00) 0 0 0 0 0
13-04-2019 18.2 (16:00) 3.8 (00:00) 11 6.39 (09:00) 3.61 (08:20) 0 0 0 0 0
12-04-2019 14.5 (16:40) 7.3 (00:00) 10.9 5.28 (00:40) 3.06 (00:40) 0 0 0 0 0
11-04-2019 12 (19:00) 9.5 (00:00) 10.8 10.83 (11:50) 6.11 (15:20) 7 0.5 2.1 4.4 0
10-04-2019 14.1 (16:10) 6.7 (00:00) 10.4 7.78 (20:00) 5 (23:59) 3.3 0 0 0 3.3
09-04-2019 17.6 (13:10) 7 (00:00) 12.3 8.61 (17:40) 4.44 (17:40) 10 0 0 4.2 5.8
08-04-2019 14.7 (14:50) 8.7 (00:00) 11.7 10.56 (01:10) 5.83 (10:00) 0.1 0 0.1 0 0
07-04-2019 14.1 (16:10) 7.1 (00:00) 10.6 10 (10:30) 6.11 (11:50) 0.2 0.2 0 0 0
06-04-2019 16.3 (15:30) 5.7 (00:00) 11 10.56 (22:20) 5.56 (22:50) 7.2 0.1 0 0 7.1
05-04-2019 14.6 (13:00) 8.3 (00:00) 11.5 9.72 (05:20) 4.17 (10:40) 0.3 0 0 0.2 0.1
04-04-2019 13.7 (16:30) 3.9 (00:00) 8.8 11.94 (05:30) 5.83 (05:30) 7.8 4.3 3.5 0 0
03-04-2019 9.8 (00:50) 2.6 (00:00) 6.2 16.67 (13:10) 8.61 (14:30) 16.9 1.1 5.9 4.4 5.5
02-04-2019 13.8 (13:00) 8.3 (00:00) 11.1 9.17 (22:10) 5.28 (23:20) 1.3 0 0 0 1.3
01-04-2019 16.6 (15:20) 10 (00:00) 13.3 5.28 (05:00) 2.78 (15:20) 0.3 0.3 0 0 0
31-03-2019 19.2 (13:10) 8 (00:00) 13.6 8.33 (18:40) 4.72 (18:40) 0 0 0 0 0
30-03-2019 21.5 (13:50) 8.7 (00:00) 15.1 12.22 (07:00) 5.28 (06:00) 0 0 0 0 0
29-03-2019 18.2 (12:40) 4.5 (00:00) 11.4 8.33 (18:50) 5 (18:40) 0 0 0 0 0
28-03-2019 14.2 (14:40) 5.4 (00:00) 9.8 5.28 (17:30) 3.33 (17:30) 0 0 0 0 0
27-03-2019 13.1 (16:00) 4.1 (00:00) 8.6 5.83 (15:30) 3.06 (19:20) 0 0 0 0 0
26-03-2019 12.2 (12:00) 6.9 (00:00) 9.5 10.28 (14:20) 5.56 (13:10) 0 0 0 0 0
25-03-2019 13.6 (13:00) 9.1 (00:00) 11.4 6.94 (07:10) 4.44 (07:10) 0 0 0 0 0
24-03-2019 15.1 (14:20) 6.7 (00:00) 10.9 5.28 (21:50) 2.78 (20:20) 0 0 0 0 0
23-03-2019 17.9 (15:20) 6.1 (00:00) 12 5.56 (06:30) 3.61 (06:30) 0 0 0 0 0
22-03-2019 19.1 (12:50) 4.7 (00:00) 11.9 6.39 (05:40) 3.61 (11:40) 0 0 0 0 0
21-03-2019 13.8 (15:30) 5.5 (00:00) 9.7 5.83 (17:20) 3.61 (17:50) 0 0 0 0 0
20-03-2019 12.5 (14:20) 6.5 (00:00) 9.5 7.22 (15:00) 4.72 (15:10) 0.8 0.8 0 0 0
19-03-2019 12.8 (14:30) 8 (00:00) 10.4 12.78 (05:10) 5.28 (06:40) 7.5 6 0.6 0 0.9

Gráficas

Temp. máximas Temp. mínimas Temp. medias Precipitaciones Rachas de viento máximas Velocidades máximas media en intervalos de 10 minutos

Datos horarios

Fecha y hora oficial Temperatura (ºC) Velocidad del viento (km/h) Dirección del viento Racha (km/h) Dirección de racha Precipitación (mm) Presión (hPa) Tendencia (hPa) Humedad (%)
2019-04-17 23:00:00 20 10 Sur 37 Sur 0 999.7 2.2 52
2019-04-17 22:00:00 19.6 6 Sur 44 Sudeste 0 999.5 2.2 54
2019-04-17 21:00:00 20.4 15 Sudeste 33 Sur 0 997.6 0.3 51
2019-04-17 20:00:00 20.5 9 Sur 19 Sur 0 997.5 -0.5 54
2019-04-17 19:00:00 20.5 8 Sudeste 20 Sudeste 0 997.3 -1.4 55
2019-04-17 18:00:00 20.2 8 Sudeste 18 Sudeste 0 997.3 -2.1 57
2019-04-17 17:00:00 20.4 6 Sudeste 18 Sudeste 0 998 -1.7 58
2019-04-17 16:00:00 20 6 Este 14 Sudeste 0 998.7 -1.6 59
2019-04-17 15:00:00 19.6 5 Sudeste 17 Sudeste 0 999.4 -1.1 60
2019-04-17 14:00:00 18 9 Sudeste 20 Sur 0 999.7 -0.9 64
2019-04-17 13:00:00 16.4 10 Sudeste 25 Sudeste 0 1000.3 0 67
2019-04-17 12:00:00 15.9 14 Sudeste 27 Sudeste 0 1000.5 0.3 66
2019-04-17 11:00:00 15.6 13 Sudeste 27 Sudeste 0 1000.6 0.6 66
2019-04-17 10:00:00 15.1 9 Sudeste 30 Sudeste 0 1000.3 0.6 66
2019-04-17 09:00:00 15 9 Sudeste 27 Sudeste 0 1000.2 0 67
2019-04-17 08:00:00 15.3 12 Sudeste 25 Sudeste 0 1000 0.1 62
2019-04-17 07:00:00 15.9 12 Sudeste 27 Sudeste 0 999.7 -1.1 59
2019-04-17 06:00:00 16.1 12 Sudeste 31 Sudeste 0 1000.2 -1.7 57
2019-04-17 05:00:00 16.5 14 Sudeste 35 Sudeste 0 999.9 -3.1 57
2019-04-17 04:00:00 16.6 13 Sudeste 28 Sudeste 0 1000.8 -2.6 61
2019-04-17 03:00:00 14.8 9 Sur 18 Sudeste 0 1001.9 -2.4 74
2019-04-17 02:00:00 12.3 6 Sur 11 Sudoeste 0 1003 -1.6 89
2019-04-17 01:00:00 12.2 5 Sur 8 Sur 0 1003.4 -1.5 89
2019-04-17 00:00:00 12.6 5 Sudoeste 9 Sudoeste 0 1004.3 -0.6 85
2019-04-16 23:00:00 13.5 3 Sudeste 13 Sudeste 0 1004.6 -0.3 81
2019-04-16 22:00:00 13.8 4 Sudeste 10 Sudeste 0 1004.9 -0.3 80
2019-04-16 21:00:00 14.2 5 Sudeste 17 Sudeste 0 1004.9 -0.5 80
2019-04-16 20:00:00 15.6 13 Sudeste 20 Sudeste 0 1004.9 -1.2 75
2019-04-16 19:00:00 16.6 13 Este 23 Este 0 1005.2 -1.8 70
2019-04-16 18:00:00 18.5 10 Este 24 Este 0 1005.4 -2.4 67
2019-04-16 17:00:00 18.6 13 Este 25 Este 0 1006.1 -2.5 69
2019-04-16 16:00:00 18.3 16 Nordeste 26 Este 0 1007 -2.4 70
2019-04-16 15:00:00 17.4 12 Nordeste 23 Nordeste 0 1007.8 -2.2 72
2019-04-16 14:00:00 16.3 11 Nordeste 20 Este 0 1008.6 -1.8 72
2019-04-16 13:00:00 16.2 6 Este 17 Este 0 1009.4 -1.1 63
2019-04-16 12:00:00 15.6 8 Sudeste 15 Sudeste 0 1010 -0.5 57
2019-04-16 11:00:00 13.9 8 Sudeste 14 Sudeste 0 1010.4 0 88
2019-04-16 10:00:00 10.7 9 Sur 17 Sur 0 1010.5 1.5 98
2019-04-16 09:00:00 8.9 9 Sur 15 Sur 0 1010.5 0.9 98
2019-04-16 08:00:00 7.8 9 Sudeste 14 Sur 0 1010.4 1 97
2019-04-16 07:00:00 8.5 8 Sur 12 Sur 0 1009 -0.2 96
2019-04-16 06:00:00 9 7 Sur 10 Sur 0 1009.6 0.5 95
2019-04-16 05:00:00 10.5 0 Calma 14 Oeste 0 1009.4 0.3 90
2019-04-16 04:00:00 11.3 5 Oeste 16 Oeste 0 1009.2 0.2 89
2019-04-16 03:00:00 11.8 8 Oeste 17 Oeste 0 1009.1 0.8 88
2019-04-16 02:00:00 11.5 0 Calma 22 Noroeste 0 1009.1 1.8 88
2019-04-16 01:00:00 12.1 9 Noroeste 19 Oeste 0 1009 2.4 88
2019-04-16 00:00:00 12.6 10 Oeste 26 Noroeste 0 1008.3 3.2 88
2019-04-15 23:00:00 12.1 9 Oeste 22 Noroeste 0 1007.3 3.1 93
2019-04-15 22:00:00 12.1 13 Noroeste 30 Noroeste 0.2 1006.6 3.1 95
2019-04-15 21:00:00 12.6 8 Noroeste 20 Noroeste 0 1005.1 2.9 95
2019-04-15 20:00:00 12.5 13 Noroeste 29 Oeste 0.1 1004.2 4.4 95
2019-04-15 19:00:00 12.5 21 Noroeste 46 Noroeste 0.7 1003.5 4.9 96
2019-04-15 18:00:00 12.6 27 Noroeste 48 Noroeste 2.1 1002.2 5.6 98
2019-04-15 17:00:00 13.2 19 Noroeste 60 Noroeste 5.2 999.8 2.2 97
2019-04-15 16:00:00 15.1 32 Noroeste 62 Noroeste 0 998.6 0.5 93
2019-04-15 15:00:00 21.2 8 Sudeste 15 Sudeste 0 996.6 -1.5 66
2019-04-15 14:00:00 20.4 0 Calma 8 Sudeste 0 997.6 -1.3 66
2019-04-15 13:00:00 20.1 4 Sudeste 15 Sur 0 998.1 -1 66
2019-04-15 12:00:00 20.5 7 Sudeste 18 Sudeste 0 998.1 -1.9 60
2019-04-15 11:00:00 20.2 6 Sur 26 Sudeste 0 998.9 -1.4 66
2019-04-15 10:00:00 17 13 Sudeste 27 Sur 0 999.1 -1.5 80
2019-04-15 09:00:00 14.7 12 Sudeste 24 Sudeste 0 1000 -1.4 88
2019-04-15 08:00:00 14.2 12 Sur 21 Sur 0 1000.3 -2 89
2019-04-15 07:00:00 13 8 Sur 18 Sur 0 1000.6 -2.2 95
2019-04-15 06:00:00 13.2 8 Sur 15 Sur 0 1001.4 -2.1 95
2019-04-15 05:00:00 12.8 9 Sur 14 Sur 0 1002.3 -2.3 95
2019-04-15 04:00:00 12.7 7 Sur 13 Sur 0 1002.8 -2.7 95
2019-04-15 03:00:00 13.3 7 Sur 19 Sudeste 0 1003.5 -2.3 95
2019-04-15 02:00:00 13 5 Sur 10 Sudeste 0 1004.6 -1.6 95
2019-04-15 01:00:00 13.3 5 Sur 9 Sudeste 0 1005.5 -0.8 94
2019-04-15 00:00:00 13.9 4 Sur 7 Sur 0 1005.8 -0.4 92
2019-04-14 23:00:00 14.4 5 Sur 11 Sur 0 1006.2 0.2 92
2019-04-14 22:00:00 14.8 3 Este 14 Este 0 1006.3 0.2 91
2019-04-14 21:00:00 15.4 10 Este 15 Este 0 1006.2 -0.3 86
2019-04-14 20:00:00 16.8 4 Nordeste 10 Nordeste 0 1006 -1.2 78
2019-04-14 19:00:00 16.7 4 Nordeste 8 Nordeste 0 1006.1 -1.9 77
2019-04-14 18:00:00 17 6 Nordeste 9 Nordeste 0 1006.5 -1.2 79
2019-04-14 17:00:00 17 6 Nordeste 15 Este 0 1007.2 -0.7 73
2019-04-14 16:00:00 15.1 9 Nordeste 17 Este 0 1008 0.3 80
2019-04-14 15:00:00 15.3 5 Norte 19 Nordeste 0 1007.7 0.3 75
2019-04-14 14:00:00 14.6 15 Nordeste 23 Nordeste 0 1007.9 0.6 78
2019-04-14 13:00:00 14.4 10 Nordeste 21 Este 0 1007.7 0.7 82
2019-04-14 12:00:00 14.5 6 Nordeste 11 Nordeste 0 1007.4 0.6 84
2019-04-14 11:00:00 14.6 5 Sudeste 8 Este 0 1007.3 0.2 68
2019-04-14 10:00:00 12.8 6 Sur 14 Sur 0 1007 0.5 81
2019-04-14 09:00:00 11 8 Sur 12 Sur 0 1006.8 -0.3 90
2019-04-14 08:00:00 10.4 6 Sur 10 Sudeste 0 1007.1 0.2 91
2019-04-14 07:00:00 10.2 6 Sur 10 Sudeste 0 1006.5 -0.4 94
2019-04-14 06:00:00 11 0 Calma 5 Norte 0 1007.1 0.1 93
2019-04-14 05:00:00 10.4 0 Calma 3 Sudeste 0 1006.9 -0.5 93
2019-04-14 04:00:00 11 0 Calma 5 Sur 0 1006.9 -0.9 93
2019-04-14 03:00:00 11.1 5 Sur 8 Sur 0 1007 -1.1 93
2019-04-14 02:00:00 11.3 4 Sur 6 Sur 0 1007.4 -0.7 93
2019-04-14 01:00:00 11.9 3 Sudoeste 10 Oeste 0 1007.8 -0.3 92
2019-04-14 00:00:00 12.2 4 Oeste 11 Noroeste 0 1008.1 0.7 92
2019-04-13 23:00:00 12.2 5 Oeste 12 Oeste 0 1008.1 0.9 92
2019-04-13 22:00:00 12.3 5 Oeste 16 Oeste 0 1008.1 0.8 92
2019-04-13 21:00:00 12.6 11 Oeste 22 Oeste 0 1007.4 0.4 88
2019-04-13 20:00:00 14.7 9 Oeste 15 Oeste 0 1007.2 0.1 72
2019-04-13 19:00:00 16.6 3 Norte 10 Norte 0 1007.3 -0.2 58
2019-04-13 18:00:00 17.3 6 Nordeste 11 Nordeste 0 1007 -0.9 54
2019-04-13 17:00:00 16.8 7 Norte 19 Nordeste 0 1007.1 -1.3 58
2019-04-13 16:00:00 17.9 8 Nordeste 14 Nordeste 0 1007.5 -1.7 54
2019-04-13 15:00:00 16.4 6 Norte 9 Norte 0 1007.9 -1.7 55
2019-04-13 14:00:00 16.3 5 Norte 10 Nordeste 0 1008.4 -1.1 61
2019-04-13 13:00:00 15.4 5 Norte 10 Norte 0 1009.2 -0.5 55
2019-04-13 12:00:00 14.4 6 Nordeste 19 Sudeste 0 1009.6 -0.3 55
2019-04-13 11:00:00 12.4 10 Sudeste 21 Sudeste 0 1009.5 -0.3 57
2019-04-13 10:00:00 9.1 10 Sudeste 22 Sur 0 1009.7 -0.1 71
2019-04-13 09:00:00 6.4 12 Sur 23 Sur 0 1009.9 0.1 88
2019-04-13 08:00:00 4.4 13 Sur 21 Sur 0 1009.8 0.1 95
2019-04-13 07:00:00 4 9 Sudeste 19 Sudeste 0 1009.8 -0.2 95
2019-04-13 06:00:00 4.5 9 Sur 15 Sudeste 0 1009.8 -0.7 95
2019-04-13 05:00:00 4.8 9 Sur 16 Sur 0 1009.7 -1.4 95
2019-04-13 04:00:00 5.3 8 Sur 15 Sur 0 1010 -1.1 95
2019-04-13 03:00:00 5.7 9 Sur 16 Sur 0 1010.5 -0.5 95
2019-04-13 02:00:00 5.9 9 Sur 16 Sur 0 1011.1 -0.2 94
2019-04-13 01:00:00 6.4 8 Sur 14 Sur 0 1011.1 -0.1 93
2019-04-13 00:00:00 7.4 7 Sur 12 Sudeste 0 1011 0.1 90
2019-04-12 23:00:00 8.3 6 Sudeste 9 Sudeste 0 1011.3 0.4 88
2019-04-12 22:00:00 9 5 Sudeste 7 Este 0 1011.2 0.3 85
2019-04-12 21:00:00 10.1 5 Este 14 Nordeste 0 1010.9 -0.3 80
2019-04-12 20:00:00 12 9 Nordeste 16 Nordeste 0 1010.9 -0.5 72
2019-04-12 19:00:00 13.1 9 Nordeste 16 Nordeste 0 1010.9 -1.2 67
2019-04-12 18:00:00 13.5 9 Nordeste 17 Nordeste 0 1011.2 -1.4 72
2019-04-12 17:00:00 13.5 10 Nordeste 15 Nordeste 0 1011.4 -1.6 72
2019-04-12 16:00:00 13.9 8 Norte 15 Nordeste 0 1012.1 -0.7 73
2019-04-12 15:00:00 13.6 7 Norte 16 Norte 0 1012.6 -0.1 79
2019-04-12 14:00:00 13.7 7 Norte 16 Noroeste 0 1013 0.2 80
2019-04-12 13:00:00 12.9 8 Norte 14 Noroeste 0 1012.8 0.1 80
2019-04-12 12:00:00 12.9 6 Norte 12 Norte 0 1012.7 0.4 81
2019-04-12 11:00:00 11.4 6 Noroeste 16 Oeste 0 1012.8 0.6 88
2019-04-12 10:00:00 10.7 8 Noroeste 17 Oeste 0 1012.7 0.7 89
2019-04-12 09:00:00 10.2 6 Noroeste 14 Oeste 0 1012.3 0.2 90
2019-04-12 08:00:00 9.7 5 Oeste 12 Oeste 0 1012.2 0 91
2019-04-12 07:00:00 9.9 6 Oeste 13 Oeste 0 1012 -0.2 90
2019-04-12 06:00:00 10 6 Oeste 13 Oeste 0 1012.1 -0.6 90
2019-04-12 05:00:00 9.5 5 Oeste 11 Noroeste 0 1012.2 -1 91
2019-04-12 04:00:00 9.7 6 Oeste 14 Oeste 0 1012.2 -1.1 90
2019-04-12 03:00:00 10 6 Oeste 15 Oeste 0 1012.7 -0.7 90
2019-04-12 02:00:00 10.1 8 Oeste 18 Oeste 0 1013.2 -0.2 90
2019-04-12 01:00:00 10.3 9 Noroeste 19 Noroeste 0 1013.3 0.3 88
2019-04-12 00:00:00 10.4 10 Noroeste 21 Norte 0 1013.4 0.9 86
2019-04-11 23:00:00 10.7 12 Noroeste 26 Noroeste 0 1013.4 1.1 85
2019-04-11 22:00:00 10.7 11 Noroeste 22 Noroeste 0 1013 0.8 84
2019-04-11 21:00:00 10.9 10 Noroeste 19 Noroeste 0 1012.5 0.5 88
2019-04-11 20:00:00 11 9 Noroeste 22 Noroeste 0 1012.3 0.7 86
2019-04-11 19:00:00 11.6 12 Noroeste 23 Noroeste 0 1012.2 0.5 85
2019-04-11 18:00:00 11.3 12 Noroeste 24 Noroeste 0 1012 0.4 87
2019-04-11 17:00:00 11.5 11 Noroeste 27 Noroeste 0 1011.6 0.1 91
2019-04-11 16:00:00 10.9 10 Noroeste 33 Noroeste 1.7 1011.7 0 96
2019-04-11 15:00:00 9.8 15 Noroeste 32 Noroeste 2.2 1011.6 0.1 96
2019-04-11 14:00:00 10.7 19 Noroeste 33 Noroeste 0.1 1011.5 0.2 94
2019-04-11 13:00:00 10.4 18 Noroeste 34 Noroeste 0.4 1011.7 0.8 95
2019-04-11 12:00:00 9.9 21 Noroeste 39 Noroeste 1.3 1011.5 0.8 95
2019-04-11 11:00:00 10 17 Noroeste 30 Noroeste 0.7 1011.3 0.9 95
2019-04-11 10:00:00 10.4 13 Oeste 22 Oeste 0 1010.9 0.8 91
2019-04-11 09:00:00 10.2 13 Oeste 36 Noroeste 0.1 1010.7 0.4 93
2019-04-11 08:00:00 10.1 10 Oeste 28 Oeste 0 1010.4 0.1 93
2019-04-11 07:00:00 10 9 Noroeste 22 Noroeste 0 1010.1 -0.1 94
2019-04-11 06:00:00 10.1 9 Noroeste 16 Oeste 0 1010.3 0.1 93
2019-04-11 05:00:00 10 8 Oeste 21 Noroeste 0 1010.3 -0.1 93
2019-04-11 04:00:00 10.3 8 Oeste 22 Noroeste 0 1010.2 -0.2 93
2019-04-11 03:00:00 10.7 13 Noroeste 26 Oeste 0.5 1010.2 0 92
2019-04-11 02:00:00 10.8 11 Noroeste 24 Noroeste 0 1010.4 0.2 93
2019-04-11 01:00:00 10.9 14 Noroeste 28 Noroeste 0 1010.4 0.5 93
2019-04-11 00:00:00 11 18 Noroeste 28 Noroeste 0 1010.2 1.5 91
2019-04-10 23:00:00 10.9 13 Noroeste 24 Noroeste 0 1010.2 1.9 91
2019-04-10 22:00:00 10.7 14 Noroeste 26 Noroeste 0 1009.9 1.7 93
2019-04-10 21:00:00 10.9 14 Noroeste 27 Noroeste 3.3 1008.7 0.9 95
2019-04-10 20:00:00 11.6 15 Noroeste 28 Noroeste 0 1008.3 0.8 87
2019-04-10 19:00:00 12.7 13 Noroeste 24 Noroeste 0 1008.2 1 84
2019-04-10 18:00:00 13.1 11 Noroeste 24 Noroeste 0 1007.8 1.1 81
2019-04-10 17:00:00 13.2 9 Noroeste 21 Norte 0 1007.5 1 80
2019-04-10 16:00:00 13.2 10 Noroeste 24 Norte 0 1007.2 0.8 78
2019-04-10 15:00:00 13 10 Norte 21 Norte 0 1006.7 0.6 79
2019-04-10 14:00:00 13.4 8 Norte 13 Nordeste 0 1006.5 0.7 81
2019-04-10 13:00:00 12.7 6 Noroeste 12 Noroeste 0 1006.4 1.1 82
2019-04-10 12:00:00 10.9 5 Sur 12 Sur 0 1006.1 1.3 94
2019-04-10 11:00:00 9 7 Sur 12 Sudeste 0 1005.8 1.9 95
2019-04-10 10:00:00 8.1 8 Sudeste 13 Sur 0 1005.3 2.2 95
2019-04-10 09:00:00 7.7 8 Sur 12 Sur 0 1004.8 1.8 95
2019-04-10 08:00:00 7 8 Sudeste 13 Sur 0 1003.9 0.9 95
2019-04-10 07:00:00 6.8 9 Sur 14 Sur 0 1003.1 0.1 95
2019-04-10 06:00:00 7.2 9 Sudeste 14 Sudeste 0 1003 -0.1 95
2019-04-10 05:00:00 7.6 8 Sur 22 Sudoeste 0 1003 0.4 95
2019-04-10 04:00:00 7.6 4 Sur 9 Sur 0 1003 0.4 96
2019-04-10 03:00:00 7.3 7 Sur 13 Sudeste 0 1003.1 0.5 97
2019-04-10 02:00:00 7.2 9 Sur 15 Sur 0 1002.6 0 97
2019-04-10 01:00:00 7.2 8 Sur 14 Sudeste 0 1002.6 0.2 97
2019-04-10 00:00:00 7.4 8 Sur 14 Sur 0 1002.6 0.7 97
2019-04-09 23:00:00 7.8 8 Sudeste 14 Sur 0 1002.6 0.6 97
2019-04-09 22:00:00 8.4 9 Sur 14 Sur 0 1002.4 0.4 97
2019-04-09 21:00:00 8.9 7 Sudeste 13 Sur 0 1001.9 0.1 97
2019-04-09 20:00:00 9.9 5 Sur 12 Sur 1 1002 1.2 97
2019-04-09 19:00:00 9.8 3 Sudoeste 20 Sudoeste 4.8 1002 1.5 97
2019-04-09 18:00:00 9.5 10 Oeste 31 Noroeste 2.5 1001.8 1.9 95
2019-04-09 17:00:00 11.7 11 Noroeste 21 Noroeste 0.9 1000.8 1.3 95
2019-04-09 16:00:00 11.7 12 Noroeste 20 Noroeste 0.1 1000.5 1 92
2019-04-09 15:00:00 11.7 13 Noroeste 24 Noroeste 0.7 999.9 0.2 83
2019-04-09 14:00:00 13.5 6 Noroeste 17 Noroeste 0 999.5 -0.2 70
2019-04-09 13:00:00 17.2 5 Oeste 18 Oeste 0 999.5 -0.2 47
2019-04-09 12:00:00 15.7 8 Sudoeste 24 Oeste 0 999.7 0.1 49
2019-04-09 11:00:00 15 8 Sudoeste 23 Sur 0 999.7 0.4 56
2019-04-09 10:00:00 13.5 8 Sur 18 Sudoeste 0 999.7 0.3 60
2019-04-09 09:00:00 11.5 9 Sur 18 Sudeste 0 999.6 0.2 65
2019-04-09 08:00:00 10.5 12 Sudeste 19 Sudeste 0 999.3 -0.5 66
2019-04-09 07:00:00 9.4 8 Sur 21 Sudeste 0 999.4 -0.8 73
2019-04-09 06:00:00 8.4 9 Sur 19 Sur 0 999.4 -1.3 81
2019-04-09 05:00:00 7.8 9 Sur 17 Sudeste 0 999.8 -1.2 90
2019-04-09 04:00:00 7.5 11 Sur 19 Sur 0 1000.2 -1.2 93
2019-04-09 03:00:00 7.1 9 Sur 20 Sudeste 0 1000.7 -0.9 93
2019-04-09 02:00:00 7.3 7 Sur 12 Sur 0 1001 -0.9 92
2019-04-09 01:00:00 8.1 8 Sudeste 16 Sudeste 0 1001.4 -1.2 92
2019-04-09 00:00:00 8.7 6 Sur 16 Sur 0 1001.6 -0.5 91
2019-04-08 23:00:00 9.6 5 Sur 11 Sudeste 0 1001.9 -0.2 88
2019-04-08 22:00:00 10.6 6 Sur 10 Sur 0 1002.6 0.3 83
2019-04-08 21:00:00 10.5 5 Sur 8 Sur 0 1002.1 -0.5 72
2019-04-08 20:00:00 11.9 5 Este 11 Nordeste 0 1002.1 -0.8 66
2019-04-08 19:00:00 13.4 3 Este 11 Este 0 1002.3 -0.8 69
2019-04-08 18:00:00 12.9 5 Este 9 Este 0 1002.6 -0.6 70
2019-04-08 17:00:00 13 4 Nordeste 11 Nordeste 0 1002.9 -0.2 75
2019-04-08 16:00:00 13.6 6 Nordeste 13 Norte 0 1003.1 0.2 72
2019-04-08 15:00:00 13.8 6 Norte 14 Norte 0 1003.2 0.5 69
2019-04-08 14:00:00 13.4 6 Noroeste 12 Noroeste 0 1003.1 0.9 78
2019-04-08 13:00:00 12.9 9 Noroeste 17 Noroeste 0 1002.9 1.3 82
2019-04-08 12:00:00 12.3 10 Oeste 23 Noroeste 0.1 1002.7 1.6 88
2019-04-08 11:00:00 11.7 12 Noroeste 31 Noroeste 0 1002.2 2.6 91
2019-04-08 10:00:00 11.8 21 Noroeste 32 Noroeste 0 1001.6 2.9 89
2019-04-08 09:00:00 12 12 Oeste 28 Oeste 0 1001.1 2.9 85
2019-04-08 08:00:00 11.9 5 Sudeste 14 Sudoeste 0 999.6 1.4 77
2019-04-08 07:00:00 12 10 Sur 19 Sudeste 0 998.7 0.8 74
2019-04-08 06:00:00 11.8 13 Sudeste 26 Sur 0 998.2 0 72
2019-04-08 05:00:00 12.8 11 Sudoeste 26 Sur 0 998.2 -0.3 63
2019-04-08 04:00:00 12.2 12 Sur 23 Sur 0 997.9 -0.8 64
2019-04-08 03:00:00 11.5 8 Sur 22 Sur 0 998.2 -1.2 66
2019-04-08 02:00:00 10.9 9 Sur 38 Sur 0 998.5 -1.3 68
2019-04-08 01:00:00 11.7 11 Sur 30 Sur 0 998.7 -1 64
2019-04-08 00:00:00 12.3 10 Sur 30 Sur 0 999.4 -0.4 61
2019-04-07 23:00:00 12.3 8 Sudoeste 31 Sudoeste 0 999.8 0.1 63
2019-04-07 22:00:00 11.1 5 Sur 8 Sur 0 999.7 -0.3 87
2019-04-07 21:00:00 11.8 3 Sudoeste 10 Sudeste 0 999.8 -0.3 81
2019-04-07 20:00:00 12.3 4 Nordeste 15 Nordeste 0 999.7 -1 78
2019-04-07 19:00:00 12.7 10 Nordeste 22 Nordeste 0 1000 -1 74
2019-04-07 18:00:00 12.2 12 Nordeste 18 Nordeste 0 1000.1 -1 71
2019-04-07 17:00:00 13.6 9 Nordeste 13 Nordeste 0 1000.7 -0.5 65
2019-04-07 16:00:00 13.2 8 Norte 18 Noroeste 0 1001 0.1 63
2019-04-07 15:00:00 13 8 Noroeste 23 Noroeste 0 1001.1 0.9 66
2019-04-07 14:00:00 12.3 11 Noroeste 20 Noroeste 0 1001.2 1.6 65
2019-04-07 13:00:00 11.8 12 Noroeste 28 Noroeste 0 1000.9 2 66
2019-04-07 12:00:00 11.2 20 Noroeste 35 Noroeste 0 1000.2 2 67
2019-04-07 11:00:00 10.5 14 Oeste 36 Oeste 0 999.6 2.2 71
2019-04-07 10:00:00 9.8 12 Oeste 34 Oeste 0 998.9 2.3 77
2019-04-07 09:00:00 9.2 15 Oeste 32 Oeste 0 998.2 2.2 77
2019-04-07 08:00:00 8.9 15 Oeste 32 Oeste 0 997.4 1.9 79
2019-04-07 07:00:00 9 16 Oeste 33 Oeste 0 996.6 1.6 76
2019-04-07 06:00:00 8.6 12 Oeste 33 Oeste 0 996 1.4 78
2019-04-07 05:00:00 8.5 16 Oeste 30 Oeste 0 995.5 1.2 77
2019-04-07 04:00:00 8.5 12 Oeste 27 Oeste 0 995 1 82
2019-04-07 03:00:00 8.3 7 Oeste 18 Oeste 0 994.6 0.8 89
2019-04-07 02:00:00 7.2 5 Sur 9 Sudeste 0 994.3 1.2 97
2019-04-07 01:00:00 7.5 5 Sur 9 Sur 0.2 994 1.7 96
2019-04-07 00:00:00 7.9 3 Oeste 29 Oeste 1.9 993.8 2.5 95
2019-04-06 23:00:00 7.9 14 Oeste 38 Oeste 3 993.1 2.8 92
2019-04-06 22:00:00 8.4 3 Sudeste 10 Sudeste 0 992.3 2.5 95
2019-04-06 21:00:00 8.8 6 Sudeste 10 Sudeste 0 991.3 3.1 93
2019-04-06 20:00:00 9.9 7 Este 14 Este 1 990.3 2.6 92
2019-04-06 19:00:00 10.8 3 Oeste 14 Este 1.2 989.8 2.3 88
2019-04-06 18:00:00 12 11 Nordeste 26 Este 0 988.2 0.5 68
2019-04-06 17:00:00 13.7 16 Nordeste 28 Este 0 987.7 -0.2 62
2019-04-06 16:00:00 15 7 Norte 28 Oeste 0 987.5 -0.6 50
2019-04-06 15:00:00 15.5 6 Sudoeste 35 Oeste 0 987.7 -0.9 42
2019-04-06 14:00:00 15.3 13 Sudoeste 28 Sur 0 987.9 -0.9 44
2019-04-06 13:00:00 14.9 10 Sudoeste 30 Oeste 0 988.1 -0.5 46
2019-04-06 12:00:00 13.2 13 Sudoeste 32 Sudoeste 0 988.6 -0.2 49
2019-04-06 11:00:00 11.6 14 Sudoeste 33 Sudoeste 0 988.8 0.1 57
2019-04-06 10:00:00 10.1 15 Sudoeste 35 Sudoeste 0 988.6 -0.2 60
2019-04-06 09:00:00 8.7 9 Sur 17 Sur 0 988.8 -0.2 73
2019-04-06 08:00:00 6 9 Sudeste 17 Sudeste 0 988.7 -0.7 88
2019-04-06 07:00:00 6.3 8 Sudeste 14 Sudeste 0 988.8 -0.7 94
2019-04-06 06:00:00 6.5 6 Sur 11 Sur 0 989 -0.6 94
2019-04-06 05:00:00 7.6 6 Sur 14 Sudeste 0 989.4 -0.2 94
2019-04-06 04:00:00 8.2 4 Sudoeste 14 Noroeste 0 989.5 -0.3 89
2019-04-06 03:00:00 9.3 10 Noroeste 24 Oeste 0 989.6 0.2 90
2019-04-06 02:00:00 9.6 10 Oeste 22 Noroeste 0.1 989.6 0.7 92
2019-04-06 01:00:00 10 11 Oeste 18 Oeste 0 989.8 1.4 93
2019-04-06 00:00:00 9.7 5 Oeste 10 Oeste 0 989.4 1.4 95
2019-04-05 23:00:00 8.7 4 Sur 8 Sur 0 988.9 1 93
2019-04-05 22:00:00 8.9 5 Sur 8 Sudeste 0 988.4 0.7 93
2019-04-05 21:00:00 9.7 0 Calma 7 Este 0 988 0.6 93
2019-04-05 20:00:00 10.2 6 Este 14 Nordeste 0 987.9 0.5 93
2019-04-05 19:00:00 10.4 5 Este 22 Este 0.1 987.7 0.3 93
2019-04-05 18:00:00 10.2 12 Nordeste 22 Norte 0.2 987.4 0 91
2019-04-05 17:00:00 12.1 13 Nordeste 23 Nordeste 0 987.4 0 85
2019-04-05 16:00:00 13 10 Norte 24 Norte 0 987.4 0 78
2019-04-05 15:00:00 12.5 9 Nordeste 21 Norte 0 987.4 0.1 76
2019-04-05 14:00:00 11.8 12 Noroeste 22 Noroeste 0 987.4 0.5 77
2019-04-05 13:00:00 14.2 8 Sur 22 Sur 0 987.4 0.8 56
2019-04-05 12:00:00 13.7 7 Sur 26 Sudoeste 0 987.3 1 58
2019-04-05 11:00:00 11.5 12 Sur 32 Sur 0 986.9 0.5 60
2019-04-05 10:00:00 11.2 10 Sur 30 Sudoeste 0 986.6 0.1 60
2019-04-05 09:00:00 11.2 14 Sur 35 Sudoeste 0 986.3 0.2 60
2019-04-05 08:00:00 10.8 11 Sur 28 Sur 0 986.4 -0.3 61
2019-04-05 07:00:00 9.6 5 Sur 13 Sudeste 0 986.5 -0.7 66
2019-04-05 06:00:00 10.4 6 Sur 35 Sur 0 986.1 -1.5 62
2019-04-05 05:00:00 10.6 12 Sur 31 Sudoeste 0 986.7 -1.6 60
2019-04-05 04:00:00 10.4 10 Sur 19 Sur 0 987.2 -1.3 62
2019-04-05 03:00:00 10.2 6 Sudoeste 26 Sur 0 987.6 -1.1 64
2019-04-05 02:00:00 10 9 Sur 25 Sur 0 988.3 -0.6 64
2019-04-05 01:00:00 10.2 10 Sur 32 Sudoeste 0 988.5 -0.6 63
2019-04-05 00:00:00 10.6 13 Sur 33 Sur 0 988.7 0 57
2019-04-04 23:00:00 11.6 14 Sudoeste 37 Sur 0 988.9 0.1 48
2019-04-04 22:00:00 12.7 11 Sudoeste 32 Sur 0 989.1 0.3 43
2019-04-04 21:00:00 13 6 Sudoeste 30 Sudoeste 0 988.7 -0.3 42
2019-04-04 20:00:00 12.8 5 Sudoeste 13 Oeste 0 988.8 -0.6 50
2019-04-04 19:00:00 12.6 0 Calma 11 Nordeste 0 988.8 -1.5 69
2019-04-04 18:00:00 13.1 8 Nordeste 19 Este 0 989 -2.7 65
2019-04-04 17:00:00 12.9 11 Nordeste 21 Nordeste 0 989.4 -3.6 61
2019-04-04 16:00:00 12.6 13 Nordeste 23 Nordeste 0 990.3 -3.8 61
2019-04-04 15:00:00 12.5 10 Nordeste 15 Nordeste 0 991.7 -3 59
2019-04-04 14:00:00 11 4 Norte 17 Oeste 0 993 -1.6 60
2019-04-04 13:00:00 11 8 Sudoeste 19 Oeste 0 994.1 -0.8 63
2019-04-04 12:00:00 8.9 7 Oeste 16 Sudoeste 0 994.7 -0.4 73
2019-04-04 11:00:00 7.7 8 Sudoeste 20 Sudoeste 0 994.6 -0.5 85
2019-04-04 10:00:00 5.3 9 Sur 14 Sur 1.1 994.9 0.4 96
2019-04-04 09:00:00 5 7 Sudoeste 23 Oeste 1 995.1 0.3 95
2019-04-04 08:00:00 4.4 13 Oeste 31 Sudoeste 1.4 995.1 0.3 94
2019-04-04 07:00:00 4.2 11 Sudoeste 35 Oeste 0 994.5 -1.1 94
2019-04-04 06:00:00 4.5 14 Oeste 43 Oeste 1.5 994.8 -0.6 95
2019-04-04 05:00:00 4.8 9 Sudoeste 38 Oeste 0.7 994.8 -1.4 92
2019-04-04 04:00:00 5.5 5 Oeste 30 Oeste 0.2 995.6 -1 89
2019-04-04 03:00:00 5.7 8 Oeste 35 Oeste 1.4 995.4 -1.6 89
2019-04-04 02:00:00 6.2 15 Oeste 40 Oeste 0.2 996.2 -1 87
2019-04-04 01:00:00 5.4 7 Sudoeste 35 Oeste 0.3 996.6 -0.3 90
2019-04-04 00:00:00 5.9 19 Oeste 39 Oeste 0.4 997 -0.1 88
2019-04-03 23:00:00 5.8 14 Oeste 51 Oeste 0.4 997.2 0.2 88
2019-04-03 22:00:00 5.9 15 Oeste 39 Oeste 0.1 996.9 -0.8 85
2019-04-03 21:00:00 4.6 14 Oeste 55 Noroeste 3.8 997.1 -0.2 94
2019-04-03 20:00:00 6.7 14 Oeste 40 Oeste 0.1 997 -0.7 81
2019-04-03 19:00:00 5.7 17 Oeste 48 Oeste 0.7 997.7 -0.4 91
2019-04-03 18:00:00 8.4 20 Oeste 39 Oeste 0.1 997.3 -1.5 78
2019-04-03 17:00:00 7.9 18 Oeste 41 Noroeste 0.4 997.7 -1.6 83
2019-04-03 16:00:00 8.4 12 Oeste 43 Oeste 0 998.1 -0.8 82
2019-04-03 15:00:00 5.7 14 Oeste 55 Noroeste 1.3 998.8 -0.9 96
2019-04-03 14:00:00 6.8 8 Noroeste 60 Noroeste 1.8 999.3 -0.8 94
2019-04-03 13:00:00 7.7 24 Noroeste 40 Noroeste 0.8 998.9 -1.2 82
2019-04-03 12:00:00 7.5 15 Oeste 36 Noroeste 0.1 999.7 -0.3 85
2019-04-03 11:00:00 6.4 15 Oeste 47 Noroeste 1.1 1000.1 -0.4 93
2019-04-03 10:00:00 7.1 17 Oeste 37 Oeste 0.1 1000.1 -0.5 86
2019-04-03 09:00:00 6.9 14 Oeste 37 Noroeste 2.5 1000 -0.9 92
2019-04-03 08:00:00 6.8 16 Oeste 46 Noroeste 1.4 1000.5 -0.7 95
2019-04-03 07:00:00 7.3 20 Oeste 45 Oeste 0.7 1000.6 -1.8 92
2019-04-03 06:00:00 7.8 18 Noroeste 48 Noroeste 0.6 1000.9 -2.1 94
2019-04-03 05:00:00 8.5 19 Oeste 42 Oeste 0 1001.2 -2.8 86
2019-04-03 04:00:00 8.7 22 Noroeste 41 Noroeste 0.2 1002.4 -2.5 91
2019-04-03 03:00:00 9.5 12 Oeste 23 Oeste 0 1003 -2.3 86
2019-04-03 02:00:00 8.9 10 Oeste 30 Oeste 0.1 1004 -1.7 91
2019-04-03 01:00:00 8.9 18 Noroeste 37 Noroeste 0.2 1004.9 -0.7 95
2019-04-03 00:00:00 9.5 12 Oeste 30 Noroeste 0 1005.3 0.1 93
2019-04-02 23:00:00 9.5 17 Noroeste 33 Noroeste 0.3 1005.7 0.4 96
2019-04-02 22:00:00 10.1 14 Noroeste 28 Oeste 0.1 1005.6 0.1 93
2019-04-02 21:00:00 10.9 14 Noroeste 28 Noroeste 0.5 1005.2 -0.6 90
2019-04-02 20:00:00 11.1 13 Noroeste 28 Noroeste 0.4 1005.3 -0.5 92
2019-04-02 19:00:00 11.8 17 Noroeste 31 Noroeste 0 1005.5 -1 91
2019-04-02 18:00:00 12.3 17 Noroeste 32 Noroeste 0 1005.8 -1.2 84
2019-04-02 17:00:00 13 14 Noroeste 31 Noroeste 0 1005.8 -1.7 80
2019-04-02 16:00:00 13.3 11 Noroeste 26 Noroeste 0 1006.5 -1.3 84
2019-04-02 15:00:00 12.9 13 Noroeste 28 Noroeste 0 1007 -1 84
2019-04-02 14:00:00 12.5 13 Noroeste 27 Noroeste 0 1007.5 -0.1 85
2019-04-02 13:00:00 13 12 Noroeste 25 Noroeste 0 1007.8 0.3 85
2019-04-02 12:00:00 12.1 14 Noroeste 28 Noroeste 0 1008 0.8 90
2019-04-02 11:00:00 12.1 14 Noroeste 27 Noroeste 0 1007.6 1 90
2019-04-02 10:00:00 10.9 3 Oeste 13 Sudoeste 0 1007.5 1.4 95
2019-04-02 09:00:00 9.8 5 Oeste 13 Oeste 0 1007.2 1.3 96
2019-04-02 08:00:00 8.5 2 Sudoeste 11 Sur 0 1006.6 0.7 96
2019-04-02 07:00:00 9.1 7 Sur 12 Sur 0 1006.1 -0.1 96
2019-04-02 06:00:00 9.6 7 Sur 10 Sur 0 1005.9 -0.3 96
2019-04-02 05:00:00 10.2 6 Sur 10 Sur 0 1005.9 -0.6 96
2019-04-02 04:00:00 10.8 3 Sur 6 Sur 0 1006.2 -0.7 95
2019-04-02 03:00:00 11.1 3 Sudoeste 5 Sur 0 1006.2 -0.6 95
2019-04-02 02:00:00 11.7 2 Oeste 8 Noroeste 0 1006.5 0 95
2019-04-02 01:00:00 12.3 5 Noroeste 8 Noroeste 0 1006.9 0.7 95
2019-04-02 00:00:00 12.5 3 Noroeste 10 Noroeste 0 1006.8 1.7 94
2019-04-01 23:00:00 12.5 6 Noroeste 15 Noroeste 0 1006.5 1.8 95
2019-04-01 22:00:00 12.8 10 Noroeste 18 Noroeste 0 1006.2 1.9 95
2019-04-01 21:00:00 13.3 5 Oeste 9 Oeste 0 1005.1 0.9 86
2019-04-01 20:00:00 14 0 Calma 5 Norte 0 1004.7 0.4 80
2019-04-01 19:00:00 14.5 3 Norte 8 Nordeste 0 1004.3 0 78
2019-04-01 18:00:00 15.2 4 Nordeste 11 Nordeste 0 1004.2 -0.6 73
2019-04-01 17:00:00 15.4 8 Nordeste 18 Nordeste 0 1004.3 -0.7 74
2019-04-01 16:00:00 16.3 8 Nordeste 17 Nordeste 0 1004.3 -0.9 70
2019-04-01 15:00:00 16 10 Nordeste 19 Este 0 1004.8 -0.7 66
2019-04-01 14:00:00 14.9 4 Noroeste 10 Oeste 0 1005 -0.4 64
2019-04-01 13:00:00 15 4 Noroeste 17 Este 0 1005.2 0.1 72
2019-04-01 12:00:00 15.8 8 Este 17 Sudeste 0 1005.5 0.6 63
2019-04-01 11:00:00 15 6 Sudeste 15 Sudeste 0 1005.4 0.8 67
2019-04-01 10:00:00 12.1 7 Sudeste 14 Sudeste 0 1005.1 0.8 82
2019-04-01 09:00:00 11.1 6 Sur 12 Sudeste 0 1004.9 0.7 85
2019-04-01 08:00:00 11 6 Sudeste 12 Sur 0 1004.6 0.4 83
2019-04-01 07:00:00 10.9 6 Sudeste 13 Sudeste 0 1004.3 0 85
2019-04-01 06:00:00 11.2 5 Sudeste 15 Sur 0.3 1004.2 -0.3 82
2019-04-01 05:00:00 12.3 9 Sur 19 Sur 0 1004.2 -0.6 69
2019-04-01 04:00:00 11.8 7 Sudeste 17 Sudeste 0 1004.3 -0.6 68
2019-04-01 03:00:00 10.9 6 Sur 11 Sur 0 1004.5 -0.3 75
2019-04-01 02:00:00 10.4 6 Sur 9 Sur 0 1004.8 -0.1 76
2019-04-01 01:00:00 10.5 3 Sur 6 Oeste 0 1004.9 0.5 89
2019-04-01 00:00:00 11.7 4 Oeste 6 Oeste 0 1004.8 0.8 89
2019-03-31 23:00:00 11 0 Calma 3 Oeste 0 1004.9 1.3 62
2019-03-31 22:00:00 11.9 0 Calma 8 Sudeste 0 1004.4 0.8 56
2019-03-31 21:00:00 13.2 3 Sudeste 12 Este 0 1004 0.6 51
2019-03-31 20:00:00 15 9 Este 22 Este 0 1003.6 0.2 47
2019-03-31 19:00:00 15.9 13 Este 30 Este 0 1003.6 -0.1 46
2019-03-31 18:00:00 16.7 15 Nordeste 27 Nordeste 0 1003.4 -1.2 51
2019-03-31 17:00:00 16.9 15 Nordeste 27 Nordeste 0 1003.4 -1.9 52
2019-03-31 16:00:00 17.1 15 Nordeste 26 Nordeste 0 1003.7 -2.1 53
2019-03-31 15:00:00 17.5 12 Nordeste 22 Nordeste 0 1004.6 -1.5 49
2019-03-31 14:00:00 17.3 10 Nordeste 17 Nordeste 0 1005.3 -0.9 51
2019-03-31 13:00:00 18.8 6 Sudeste 21 Sudeste 0 1005.8 -0.2 41
2019-03-31 12:00:00 17.4 10 Sudeste 19 Sudeste 0 1006.1 0.3 48
2019-03-31 11:00:00 15.4 9 Sudeste 19 Sudeste 0 1006.2 0.5 54
2019-03-31 10:00:00 12.9 7 Sudeste 15 Sudeste 0 1006 0.4 63
2019-03-31 09:00:00 10.2 8 Sur 13 Sur 0 1005.8 -0.1 72
2019-03-31 08:00:00 8.7 8 Sur 15 Sudeste 0 1005.7 -0.8 76
2019-03-31 07:00:00 8.5 9 Sur 17 Sur 0 1005.6 -1.5 84
2019-03-31 06:00:00 8.4 9 Sur 16 Sur 0 1005.9 -1.6 93
2019-03-31 05:00:00 8.4 10 Sur 17 Sur 0 1006.5 -1.7 96
2019-03-31 03:00:00 9 7 Sur 11 Sur 0 1007.5 -1.2 96
2019-03-31 01:00:00 9.5 8 Sur 10 Sur 0 1008.2 -0.6 95
2019-03-31 00:00:00 10.1 5 Sudeste 7 Sudeste 0 1008.5 0.1 95
2019-03-30 23:00:00 10.4 3 Sur 4 Sudeste 0 1008.7 1.1 93
2019-03-30 22:00:00 11.6 3 Noroeste 8 Oeste 0 1008.8 1.4 93
2019-03-30 21:00:00 12.3 4 Oeste 15 Noroeste 0 1008.4 1.4 92
2019-03-30 20:00:00 12.8 9 Noroeste 21 Noroeste 0 1007.6 0.6 89
2019-03-30 19:00:00 13.3 13 Noroeste 22 Noroeste 0 1007.4 0.4 87
2019-03-30 18:00:00 14.5 13 Noroeste 24 Noroeste 0 1007 -0.3 85
2019-03-30 17:00:00 16 10 Noroeste 19 Oeste 0 1007 -0.7 69
2019-03-30 16:00:00 17.6 7 Norte 24 Nordeste 0 1007 -1.3 56
2019-03-30 15:00:00 17.7 7 Nordeste 15 Norte 0 1007.3 -1.8 55
2019-03-30 14:00:00 20.6 4 Sudeste 24 Sudeste 0 1007.7 -1.6 37
2019-03-30 13:00:00 20 11 Sur 26 Sudeste 0 1008.3 -1.2 35
2019-03-30 12:00:00 19.2 13 Sur 29 Sudeste 0 1009.1 0 37
2019-03-30 11:00:00 17.1 15 Sur 34 Sur 0 1009.3 0.3 39
2019-03-30 10:00:00 15.9 15 Sur 34 Sudeste 0 1009.5 0.9 41
2019-03-30 09:00:00 14.4 17 Sur 35 Sur 0 1009.1 0.6 44
2019-03-30 08:00:00 12.7 15 Sudeste 38 Sudeste 0 1009 0.1 47
2019-03-30 07:00:00 12.1 17 Sur 44 Sudeste 0 1008.6 -0.4 48
2019-03-30 06:00:00 12.3 19 Sur 34 Sur 0 1008.5 -0.8 49
2019-03-30 05:00:00 11.7 9 Sudeste 18 Este 0 1008.9 -0.8 54
2019-03-30 04:00:00 10 4 Este 13 Sudeste 0 1009 -0.8 66
2019-03-30 03:00:00 8.9 5 Sudeste 17 Sudeste 0 1009.3 -0.8 93
2019-03-30 02:00:00 9.5 0 Calma 4 Oeste 0 1009.7 -0.8 96
2019-03-30 01:00:00 9.9 0 Calma 6 Sur 0 1009.8 -0.9 96
2019-03-30 00:00:00 9.4 3 Sur 6 Sur 0 1010.1 -0.6 95
2019-03-29 23:00:00 10.1 2 Sudoeste 5 Sudoeste 0 1010.5 0.2 95
2019-03-29 22:00:00 11.2 2 Oeste 12 Noroeste 0 1010.7 0.9 95
2019-03-29 21:00:00 11.7 8 Noroeste 18 Oeste 0 1010.7 1.3 94
2019-03-29 20:00:00 12 13 Noroeste 23 Noroeste 0 1010.3 0.8 94
2019-03-29 19:00:00 12.7 14 Noroeste 30 Oeste 0 1009.8 -0.4 92
2019-03-29 18:00:00 15.2 10 Oeste 18 Oeste 0 1009.4 -1.5 71
2019-03-29 17:00:00 17.1 5 Noroeste 13 Oeste 0 1009.5 -2.1 56
2019-03-29 16:00:00 17.2 3 Norte 18 Nordeste 0 1010.2 -2.4 55
2019-03-29 15:00:00 16.7 10 Nordeste 20 Nordeste 0 1010.9 -2.4 57
2019-03-29 14:00:00 16.6 12 Nordeste 18 Nordeste 0 1011.6 -2.5 56
2019-03-29 13:00:00 16.1 8 Norte 20 Sudeste 0 1012.6 -1.9 58
2019-03-29 12:00:00 17 9 Sudeste 22 Sudeste 0 1013.3 -1.4 47
2019-03-29 11:00:00 14.5 11 Sudeste 22 Sudeste 0 1014.1 -1.1 54
2019-03-29 10:00:00 12 12 Sudeste 21 Sudeste 0 1014.5 -0.9 69
2019-03-29 09:00:00 8.5 11 Sur 21 Sur 0 1014.7 -0.8 85
2019-03-29 08:00:00 5.9 9 Sur 16 Sur 0 1015.2 -0.6 95
2019-03-29 07:00:00 4.5 10 Sur 15 Sur 0 1015.4 -0.7 96
2019-03-29 06:00:00 5.1 10 Sur 15 Sur 0 1015.5 -1.2 96
2019-03-29 05:00:00 5.4 10 Sur 16 Sur 0 1015.8 -1.4 96
2019-03-29 04:00:00 5.7 9 Sur 15 Sudeste 0 1016.1 -1.7 96
2019-03-29 03:00:00 6 9 Sur 14 Sudeste 0 1016.7 -1.7 96
2019-03-29 02:00:00 6.4 8 Sur 12 Sur 0 1017.2 -1.6 96
2019-03-29 01:00:00 6.9 8 Sur 10 Sudeste 0 1017.8 -1.2 95
2019-03-29 00:00:00 7.3 7 Sur 10 Sudeste 0 1018.4 -0.7 95
2019-03-28 23:00:00 7.7 6 Sur 7 Sur 0 1018.8 0 93
2019-03-28 22:00:00 8.7 0 Calma 6 Oeste 0 1019 0 91
2019-03-28 21:00:00 9.6 0 Calma 8 Norte 0 1019.1 0.2 90
2019-03-28 20:00:00 10.4 6 Nordeste 14 Nordeste 0 1018.8 -0.2 87
2019-03-28 19:00:00 11.3 9 Nordeste 16 Nordeste 0 1019 -0.5 82
2019-03-28 18:00:00 12.4 9 Nordeste 19 Nordeste 0 1018.9 -1.1 78
2019-03-28 17:00:00 12.8 10 Norte 17 Norte 0 1019 -1.4 74
2019-03-28 16:00:00 13.3 9 Norte 17 Norte 0 1019.5 -1.7 72
2019-03-28 15:00:00 13.4 9 Norte 17 Norte 0 1020 -1.6 72
2019-03-28 14:00:00 13.2 9 Noroeste 18 Noroeste 0 1020.4 -1.4 78
2019-03-28 13:00:00 13.3 8 Norte 19 Norte 0 1021.2 -0.5 79
2019-03-28 12:00:00 12.2 9 Noroeste 17 Noroeste 0 1021.6 0 83
2019-03-28 11:00:00 11.7 8 Noroeste 15 Oeste 0 1021.8 0.4 83
2019-03-28 10:00:00 10.6 7 Oeste 14 Oeste 0 1021.7 0.9 85
2019-03-28 09:00:00 9 6 Sur 14 Sur 0 1021.6 0.9 92
2019-03-28 08:00:00 6.6 9 Sur 12 Sur 0 1021.4 0.7 96
2019-03-28 07:00:00 5.4 8 Sur 13 Sudeste 0 1020.8 0.2 95
2019-03-28 06:00:00 6.3 7 Sur 12 Sudeste 0 1020.7 0 95
2019-03-28 05:00:00 6.6 8 Sur 11 Sur 0 1020.7 -0.3 93
2019-03-28 04:00:00 7.2 8 Sur 11 Sur 0 1020.6 -0.7 92
2019-03-28 03:00:00 7.8 4 Sur 10 Sudoeste 0 1020.7 -0.7 91
2019-03-28 02:00:00 9.2 4 Sudoeste 12 Oeste 0 1021 -0.4 88
2019-03-28 01:00:00 9.4 4 Oeste 13 Oeste 0 1021.3 -0.1 88
2019-03-28 00:00:00 10.1 6 Oeste 10 Oeste 0 1021.4 0 86
2019-03-27 23:00:00 10.5 5 Noroeste 10 Norte 0 1021.4 0.6 84
2019-03-27 22:00:00 10.2 4 Norte 14 Nordeste 0 1021.4 1 79
2019-03-27 21:00:00 10.2 4 Nordeste 12 Norte 0 1021.4 1.3 75
2019-03-27 20:00:00 10.1 8 Norte 19 Norte 0 1020.8 0.7 76
2019-03-27 19:00:00 10.6 8 Nordeste 19 Nordeste 0 1020.4 0.3 75
2019-03-27 18:00:00 11.6 9 Nordeste 21 Nordeste 0 1020.1 0 69
2019-03-27 17:00:00 11.9 9 Norte 20 Norte 0 1020.1 -0.4 68
2019-03-27 16:00:00 12.5 8 Norte 21 Norte 0 1020.1 -0.5 67
2019-03-27 15:00:00 12.8 9 Norte 19 Noroeste 0 1020.1 -0.4 66
2019-03-27 14:00:00 12.4 9 Norte 17 Norte 0 1020.5 0.1 66
2019-03-27 13:00:00 12.3 7 Norte 15 Noroeste 0 1020.6 0.7 69
2019-03-27 12:00:00 12.2 6 Norte 14 Norte 0 1020.5 1.1 70
2019-03-27 11:00:00 11.5 4 Norte 9 Norte 0 1020.4 1.4 71
2019-03-27 10:00:00 9.9 0 Calma 11 Sur 0 1019.9 1.3 80
2019-03-27 09:00:00 7.1 9 Sudeste 13 Sur 0 1019.4 1 91
2019-03-27 08:00:00 5.4 9 Sur 13 Sur 0 1019 0.8 96
2019-03-27 07:00:00 4.3 9 Sur 13 Sur 0 1018.6 0.5 96
2019-03-27 06:00:00 4.5 9 Sur 12 Sur 0 1018.4 -0.2 94
2019-03-27 05:00:00 5.1 7 Sur 10 Sudeste 0 1018.2 -0.4 94
2019-03-27 04:00:00 5.3 6 Sur 9 Sur 0 1018.1 -0.8 93
2019-03-27 03:00:00 6.2 7 Sur 9 Sur 0 1018.6 -0.3 92
2019-03-27 02:00:00 6.5 7 Sur 10 Sur 0 1018.6 -0.1 92
2019-03-27 01:00:00 6.9 6 Sur 10 Sudeste 0 1018.9 0.2 91
2019-03-27 00:00:00 7.3 7 Sur 10 Sur 0 1018.9 0.2 91
2019-03-26 23:00:00 7.9 4 Sudoeste 11 Oeste 0 1018.7 0.4 91
2019-03-26 22:00:00 8.1 4 Sudoeste 8 Sudoeste 0 1018.7 0.2 90
2019-03-26 21:00:00 7.9 3 Sudoeste 9 Este 0 1018.7 0.5 87
2019-03-26 20:00:00 9 4 Este 15 Este 0 1018.3 0 82
2019-03-26 19:00:00 9.9 12 Este 24 Nordeste 0 1018.5 0.4 69
2019-03-26 18:00:00 10.6 13 Nordeste 25 Nordeste 0 1018.2 -0.1 66
2019-03-26 17:00:00 10.9 13 Nordeste 28 Nordeste 0 1018.3 -0.4 65
2019-03-26 16:00:00 11.4 16 Nordeste 32 Nordeste 0 1018.1 -0.9 67
2019-03-26 15:00:00 11.3 18 Nordeste 37 Nordeste 0 1018.3 -0.9 62
2019-03-26 14:00:00 11.4 18 Nordeste 35 Nordeste 0 1018.7 -0.7 62
2019-03-26 13:00:00 11.6 18 Nordeste 31 Nordeste 0 1019 -0.4 50
2019-03-26 12:00:00 12 12 Nordeste 23 Este 0 1019.2 -0.2 56
2019-03-26 11:00:00 11.4 10 Este 26 Este 0 1019.4 0.2 56
2019-03-26 10:00:00 10.2 15 Este 27 Este 0 1019.4 0.8 60
2019-03-26 09:00:00 9.3 13 Este 25 Sudeste 0 1019.4 1 66
2019-03-26 08:00:00 8.1 5 Sudeste 16 Este 0 1019.2 1 73
2019-03-26 07:00:00 7.3 8 Sudeste 16 Este 0 1018.6 0.4 72
2019-03-26 06:00:00 7.7 5 Sudeste 19 Este 0 1018.4 0.3 66
2019-03-26 05:00:00 8.4 10 Este 21 Este 0 1018.2 0.1 67
2019-03-26 04:00:00 9.1 9 Este 20 Este 0 1018.2 0 69
2019-03-26 03:00:00 9.3 10 Este 30 Este 0 1018.1 -0.4 71
2019-03-26 02:00:00 10 14 Este 28 Nordeste 0 1018.1 -0.6 70
2019-03-26 01:00:00 10.5 12 Este 24 Este 0 1018.2 -0.8 80
2019-03-26 00:00:00 10.5 12 Nordeste 23 Este 0 1018.5 -0.2 88
2019-03-25 23:00:00 9.5 0 Calma 13 Nordeste 0 1018.7 0.4 85
2019-03-25 22:00:00 9.5 7 Nordeste 18 Norte 0 1019 0.9 82
2019-03-25 21:00:00 9.8 12 Nordeste 21 Nordeste 0 1018.7 0.6 80
2019-03-25 20:00:00 9.9 12 Nordeste 23 Nordeste 0 1018.3 0.2 77
2019-03-25 19:00:00 10.4 13 Nordeste 23 Norte 0 1018.1 -0.4 74
2019-03-25 18:00:00 11.1 15 Nordeste 24 Nordeste 0 1018.1 -0.8 67
2019-03-25 17:00:00 12.1 12 Nordeste 22 Nordeste 0 1018.1 -1.2 71
2019-03-25 16:00:00 13.1 12 Nordeste 22 Nordeste 0 1018.5 -1.1 72
2019-03-25 15:00:00 13.1 14 Nordeste 24 Nordeste 0 1018.9 -1 73
2019-03-25 14:00:00 13.1 15 Nordeste 25 Norte 0 1019.3 -0.6 73
2019-03-25 13:00:00 13 13 Nordeste 22 Nordeste 0 1019.6 -0.1 65
2019-03-25 12:00:00 11.9 11 Nordeste 21 Nordeste 0 1019.9 1 73
2019-03-25 11:00:00 12.3 8 Nordeste 17 Nordeste 0 1019.9 1.1 72
2019-03-25 10:00:00 11.5 9 Este 20 Este 0 1019.7 1.6 74
2019-03-25 09:00:00 11.1 10 Este 23 Nordeste 0 1018.9 1.2 81
2019-03-25 08:00:00 10.5 12 Nordeste 25 Este 0 1018.8 1.2 82
2019-03-25 07:00:00 10.6 15 Este 23 Este 0 1018.1 0.2 85
2019-03-25 06:00:00 11.1 10 Nordeste 22 Nordeste 0 1017.7 -0.1 90
2019-03-25 05:00:00 11.3 10 Noroeste 19 Noroeste 0 1017.6 -0.4 92
2019-03-25 04:00:00 11.3 10 Noroeste 22 Noroeste 0 1017.9 -0.1 92
2019-03-25 03:00:00 11.1 5 Norte 16 Nordeste 0 1017.8 -0.4 92
2019-03-25 02:00:00 11.2 5 Noroeste 18 Nordeste 0 1018 -0.4 93
2019-03-25 01:00:00 11.5 7 Nordeste 15 Nordeste 0 1018 -0.3 93
2019-03-25 00:00:00 11.2 6 Noroeste 13 Noroeste 0 1018.2 0.6 95
2019-03-24 23:00:00 11.3 2 Noroeste 16 Norte 0 1018.4 1.2 97
2019-03-24 22:00:00 11.9 4 Norte 19 Noroeste 0 1018.3 1.7 97
2019-03-24 21:00:00 12.1 8 Noroeste 16 Noroeste 0 1017.6 1.5 97
2019-03-24 20:00:00 12.5 9 Noroeste 16 Noroeste 0 1017.2 1.1 97
2019-03-24 19:00:00 12.8 9 Noroeste 16 Oeste 0 1016.6 0.5 96
2019-03-24 18:00:00 13.1 10 Oeste 15 Noroeste 0 1016.1 -0.2 95
2019-03-24 17:00:00 13.4 8 Noroeste 18 Norte 0 1016.1 -0.7 95
2019-03-24 16:00:00 13.5 9 Noroeste 16 Noroeste 0 1016.1 -1 93
2019-03-24 15:00:00 14.5 7 Norte 16 Noroeste 0 1016.3 -1.4 91
2019-03-24 14:00:00 14.6 9 Norte 14 Noroeste 0 1016.8 -0.8 90
2019-03-24 13:00:00 14 7 Norte 12 Norte 0 1017.1 0.1 86
2019-03-24 12:00:00 13.6 6 Norte 12 Norte 0 1017.7 0.9 84
2019-03-24 11:00:00 12.9 8 Norte 12 Norte 0 1017.6 1.2 81
2019-03-24 10:00:00 12.4 5 Sur 12 Sur 0 1017 0.9 82
2019-03-24 09:00:00 9.7 10 Sur 14 Sur 0 1016.8 1.1 91
2019-03-24 08:00:00 7.6 9 Sur 13 Sur 0 1016.4 0.8 95
2019-03-24 07:00:00 7.4 10 Sur 13 Sudeste 0 1016.1 0.6 95
2019-03-24 06:00:00 7.4 9 Sur 14 Sur 0 1015.7 0.2 95
2019-03-24 05:00:00 7.8 9 Sur 13 Sur 0 1015.6 0 95
2019-03-24 04:00:00 8.1 8 Sur 10 Sur 0 1015.5 -0.2 95
2019-03-24 03:00:00 8.8 8 Sur 11 Sur 0 1015.5 -0.4 95
2019-03-24 02:00:00 9.2 6 Sur 8 Sur 0 1015.6 -0.6 93
2019-03-24 01:00:00 10.4 3 Oeste 7 Oeste 0 1015.7 -0.4 92
2019-03-24 00:00:00 10.7 3 Oeste 9 Oeste 0 1015.9 0.3 92
2019-03-23 23:00:00 11.8 6 Oeste 12 Oeste 0 1016.2 1.1 90
2019-03-23 22:00:00 11.7 7 Oeste 11 Oeste 0 1016.1 1.3 92
2019-03-23 21:00:00 12.3 7 Oeste 19 Oeste 0 1015.6 1.2 92
2019-03-23 20:00:00 12.7 8 Oeste 15 Oeste 0 1015.1 0.6 90
2019-03-23 19:00:00 14.3 6 Oeste 11 Oeste 0 1014.8 -0.1 79
2019-03-23 18:00:00 16.9 3 Oeste 17 Nordeste 0 1014.4 -1 61
2019-03-23 17:00:00 17.1 10 Nordeste 18 Nordeste 0 1014.5 -1.8 53
2019-03-23 16:00:00 15.9 10 Oeste 14 Oeste 0 1014.9 -2 66
2019-03-23 15:00:00 16.7 4 Norte 15 Norte 0 1015.4 -1.8 57
2019-03-23 14:00:00 15.6 8 Norte 17 Norte 0 1016.3 -1.3 60
2019-03-23 13:00:00 14.7 9 Norte 17 Norte 0 1016.9 -1 82
2019-03-23 12:00:00 14.2 9 Nordeste 13 Nordeste 0 1017.2 -0.5 70
2019-03-23 11:00:00 15.3 5 Sur 13 Sudeste 0 1017.6 0 57
2019-03-23 10:00:00 12.3 9 Sudeste 17 Sur 0 1017.9 0.8 63
2019-03-23 09:00:00 9.6 12 Sur 17 Sur 0 1017.7 0.6 70
2019-03-23 08:00:00 6.9 11 Sur 18 Sur 0 1017.6 0.5 79
2019-03-23 07:00:00 6.2 10 Sur 20 Sur 0 1017.1 -0.3 78
2019-03-23 06:00:00 6.9 11 Sur 17 Sur 0 1017.1 -0.6 77
2019-03-23 05:00:00 7.5 10 Sur 16 Sur 0 1017.1 -0.6 75
2019-03-23 04:00:00 7.5 11 Sur 14 Sur 0 1017.4 -0.3 75
2019-03-23 03:00:00 8.3 10 Sur 15 Sur 0 1017.7 -0.2 72
2019-03-23 02:00:00 8.8 10 Sur 17 Sur 0 1017.7 -0.2 69
2019-03-23 01:00:00 9 9 Sur 17 Sur 0 1017.7 -0.3 69
2019-03-23 00:00:00 9.7 10 Sur 17 Sur 0 1017.9 0.1 69
2019-03-22 23:00:00 10.3 10 Sur 15 Sur 0 1017.9 0.3 66
2019-03-22 22:00:00 10.7 9 Sur 12 Sur 0 1018 1 70
2019-03-22 21:00:00 11 3 Sur 6 Sur 0 1017.8 1.1 69
2019-03-22 20:00:00 12.1 5 Oeste 6 Oeste 0 1017.6 1 67
2019-03-22 19:00:00 14.5 2 Oeste 7 Noroeste 0 1017 0.4 72
2019-03-22 18:00:00 15.7 3 Noroeste 10 Noroeste 0 1016.7 -0.1 59
2019-03-22 17:00:00 15.2 5 Noroeste 12 Norte 0 1016.6 -0.7 73
2019-03-22 16:00:00 15 5 Norte 11 Noroeste 0 1016.6 -1 80
2019-03-22 15:00:00 15.7 7 Norte 13 Noroeste 0 1016.8 -0.7 74
2019-03-22 14:00:00 14.7 7 Noroeste 12 Norte 0 1017.3 -0.2 73
2019-03-22 13:00:00 18.9 4 Sudoeste 21 Sur 0 1017.6 0.3 32
2019-03-22 12:00:00 17.7 10 Sur 23 Sur 0 1017.5 0.5 38
2019-03-22 11:00:00 15.9 10 Sur 23 Sur 0 1017.5 0.6 45
2019-03-22 10:00:00 13.5 11 Sudeste 21 Sur 0 1017.3 0.7 53
2019-03-22 09:00:00 10.6 8 Sudeste 21 Sur 0 1017 0.8 64
2019-03-22 08:00:00 7.8 10 Sur 22 Sudeste 0 1016.9 0.5 75
2019-03-22 07:00:00 5.9 10 Sur 21 Sudeste 0 1016.6 -0.1 86
2019-03-22 06:00:00 5.4 11 Sur 23 Sudeste 0 1016.2 -1 90
2019-03-22 05:00:00 4.9 7 Sur 15 Sudeste 0 1016.4 -1.2 92
2019-03-22 04:00:00 5 9 Sudeste 15 Sur 0 1016.7 -1.3 92
2019-03-22 03:00:00 5.1 9 Sur 15 Sudeste 0 1017.2 -1.3 92
2019-03-22 02:00:00 5.8 8 Sur 15 Sur 0 1017.6 -1.2 91
2019-03-22 01:00:00 6 9 Sur 16 Sur 0 1018 -1 90
2019-03-22 00:00:00 6.5 9 Sur 15 Sur 0 1018.5 -0.4 89
2019-03-21 23:00:00 6.9 7 Sur 9 Sur 0 1018.8 0.1 88
2019-03-21 22:00:00 7.5 5 Sudeste 7 Sur 0 1019 0.4 88
2019-03-21 21:00:00 8.2 5 Sur 6 Sur 0 1018.9 0.4 84
2019-03-21 20:00:00 9.3 6 Este 13 Nordeste 0 1018.7 0.2 80
2019-03-21 19:00:00 10.8 8 Nordeste 18 Nordeste 0 1018.6 -0.4 72
2019-03-21 18:00:00 11.9 12 Nordeste 21 Nordeste 0 1018.5 -1.1 67
2019-03-21 17:00:00 12.8 10 Nordeste 18 Nordeste 0 1018.5 -1.6 68
2019-03-21 16:00:00 12.9 12 Nordeste 19 Nordeste 0 1019 -1.9 64
2019-03-21 15:00:00 13.5 9 Norte 17 Noroeste 0 1019.6 -1.6 69
2019-03-21 14:00:00 12.9 8 Norte 16 Norte 0 1020.1 -1.2 79
2019-03-21 13:00:00 12.6 8 Norte 16 Noroeste 0 1020.9 -0.4 81
2019-03-21 12:00:00 11.9 7 Noroeste 13 Noroeste 0 1021.2 -0.3 81
2019-03-21 11:00:00 11.1 6 Noroeste 11 Noroeste 0 1021.3 -0.1 82
2019-03-21 10:00:00 10.6 4 Sudeste 13 Sur 0 1021.3 0.3 86
2019-03-21 09:00:00 8 9 Sur 14 Sur 0 1021.5 0.6 91
2019-03-21 08:00:00 6.4 8 Sur 12 Sur 0 1021.4 0.6 94
2019-03-21 07:00:00 5.6 9 Sur 13 Sur 0 1021 0.1 93
2019-03-21 06:00:00 6 9 Sur 13 Sur 0 1020.9 -0.2 92
2019-03-21 05:00:00 6.1 9 Sur 12 Sur 0 1020.8 -0.8 92
2019-03-21 04:00:00 6.3 8 Sur 13 Sur 0 1020.9 -1.3 91
2019-03-21 03:00:00 6.3 8 Sudeste 12 Sudeste 0 1021.1 -1.6 90
2019-03-21 02:00:00 6.7 6 Sur 11 Sudeste 0 1021.6 -1.5 88
2019-03-21 01:00:00 7 7 Sur 10 Sur 0 1022.2 -1 88
2019-03-21 00:00:00 6.8 8 Sur 10 Sur 0 1022.7 -0.4 88
2019-03-20 23:00:00 7 7 Sur 9 Este 0 1023.1 0.3 85
2019-03-20 22:00:00 8.3 5 Este 11 Este 0 1023.2 0.5 82
2019-03-20 21:00:00 8.2 6 Este 10 Este 0 1023.1 0.6 79
2019-03-20 20:00:00 8.7 5 Este 17 Nordeste 0 1022.8 0.5 74
2019-03-20 19:00:00 9.7 10 Nordeste 23 Nordeste 0 1022.7 0.4 71
2019-03-20 18:00:00 10.4 11 Nordeste 23 Nordeste 0 1022.5 0 66
2019-03-20 17:00:00 11.8 12 Nordeste 22 Nordeste 0 1022.3 -0.7 59
2019-03-20 16:00:00 12.2 12 Nordeste 24 Nordeste 0 1022.3 -1.3 55
2019-03-20 15:00:00 12.1 15 Nordeste 26 Nordeste 0 1022.5 -1.6 57
2019-03-20 14:00:00 12.4 14 Nordeste 24 Nordeste 0 1023 -1 63
2019-03-20 13:00:00 12.1 14 Nordeste 23 Nordeste 0 1023.6 0 70
2019-03-20 12:00:00 12.1 11 Nordeste 18 Nordeste 0 1024.1 0.9 73
2019-03-20 11:00:00 11.1 6 Norte 17 Nordeste 0 1024 1.3 81
2019-03-20 10:00:00 9.9 4 Norte 14 Nordeste 0 1023.6 1.6 85
2019-03-20 09:00:00 9.7 0 Calma 6 Sudeste 0 1023.2 1.5 97
2019-03-20 08:00:00 8.4 4 Sur 10 Sudeste 0 1022.7 0.8 97
2019-03-20 07:00:00 7.9 3 Sur 8 Sudeste 0 1022 0.1 97
2019-03-20 06:00:00 7.7 4 Sur 5 Sur 0 1021.7 -0.5 97
2019-03-20 05:00:00 8.1 4 Sur 6 Sudeste 0 1021.9 -0.6 97
2019-03-20 04:00:00 8.3 5 Sudeste 9 Sudeste 0 1021.9 -0.9 97
2019-03-20 03:00:00 8.7 2 Sudoeste 15 Noroeste 0.1 1022.2 -0.7 96
2019-03-20 02:00:00 8.8 5 Noroeste 14 Noroeste 0 1022.5 -0.3 96
2019-03-20 01:00:00 8.8 3 Noroeste 14 Nordeste 0.7 1022.8 0.5 95
2019-03-20 00:00:00 8.7 2 Norte 9 Norte 0.5 1022.9 1.1 92
2019-03-19 23:00:00 9.1 6 Nordeste 17 Nordeste 0.4 1022.8 1.5 88
2019-03-19 22:00:00 9.6 4 Este 12 Nordeste 0 1022.3 1.2 81
2019-03-19 21:00:00 9.8 8 Nordeste 18 Nordeste 0 1021.8 1.3 81
2019-03-19 20:00:00 9.5 4 Este 10 Nordeste 0 1021.3 1 89
2019-03-19 19:00:00 10 5 Noroeste 10 Noroeste 0 1021.1 0.7 90
2019-03-19 18:00:00 10.2 3 Norte 10 Nordeste 0 1020.5 0.3 90
2019-03-19 17:00:00 10.7 6 Nordeste 17 Nordeste 0 1020.3 0.2 84
2019-03-19 16:00:00 11.2 10 Nordeste 21 Norte 0 1020.4 0.1 84
2019-03-19 15:00:00 11.4 13 Nordeste 21 Nordeste 0 1020.2 0.1 79
2019-03-19 14:00:00 11.8 13 Nordeste 21 Norte 0 1020.1 0.2 79
2019-03-19 13:00:00 11.5 9 Nordeste 18 Norte 0 1020.3 0.9 84
2019-03-19 12:00:00 11.1 11 Nordeste 22 Nordeste 0 1020.1 1.1 89
2019-03-19 11:00:00 11.2 9 Nordeste 20 Norte 0 1019.9 1.6 88
2019-03-19 10:00:00 10.1 10 Nordeste 31 Norte 0 1019.4 1.5 94
2019-03-19 09:00:00 9.6 12 Nordeste 27 Nordeste 0 1019 1.1 95
2019-03-19 08:00:00 9.2 12 Noroeste 31 Norte 0.5 1018.3 0.6 96
2019-03-19 07:00:00 9.5 15 Noroeste 31 Noroeste 0.1 1017.9 -0.2 94
2019-03-19 06:00:00 8.9 11 Norte 46 Nordeste 3.4 1017.9 -0.6 96
2019-03-19 05:00:00 9.4 12 Noroeste 24 Noroeste 0.3 1017.7 -1.3 95
2019-03-19 04:00:00 8.9 13 Noroeste 30 Noroeste 0.6 1018.1 -0.8 94
2019-03-19 03:00:00 8.9 13 Noroeste 39 Noroeste 0.9 1018.5 -0.8 95
2019-03-19 02:00:00 9 16 Noroeste 37 Norte 0 1019 -0.7 89
2019-03-19 01:00:00 9.2 13 Noroeste 34 Noroeste 0.8 1018.9 -0.8 92
2019-03-19 00:00:00 9.8 14 Noroeste 28 Noroeste 0 1019.3 -0.2 85